sensor_id;sensor_type;location;lat;lon;timestamp;P1;durP1;ratioP1;P2;durP2;ratioP2
23290;SDS011;11814;44.686;10.842;2023-03-23T00:01:06;59.60;;;24.27;;
23290;SDS011;11814;44.686;10.842;2023-03-23T00:03:37;60.17;;;24.38;;
23290;SDS011;11814;44.686;10.842;2023-03-23T00:06:04;49.00;;;24.52;;
23290;SDS011;11814;44.686;10.842;2023-03-23T00:08:35;49.83;;;23.10;;
23290;SDS011;11814;44.686;10.842;2023-03-23T00:11:08;43.15;;;23.17;;
23290;SDS011;11814;44.686;10.842;2023-03-23T00:13:34;49.00;;;22.80;;
23290;SDS011;11814;44.686;10.842;2023-03-23T00:16:00;49.97;;;22.60;;
23290;SDS011;11814;44.686;10.842;2023-03-23T00:18:27;41.85;;;22.13;;
23290;SDS011;11814;44.686;10.842;2023-03-23T00:20:53;36.83;;;24.08;;
23290;SDS011;11814;44.686;10.842;2023-03-23T00:23:23;40.95;;;24.00;;
23290;SDS011;11814;44.686;10.842;2023-03-23T00:25:51;34.65;;;23.20;;
23290;SDS011;11814;44.686;10.842;2023-03-23T00:28:21;44.10;;;26.35;;
23290;SDS011;11814;44.686;10.842;2023-03-23T00:30:53;45.10;;;25.33;;
23290;SDS011;11814;44.686;10.842;2023-03-23T00:33:21;37.58;;;21.80;;
23290;SDS011;11814;44.686;10.842;2023-03-23T00:35:48;41.15;;;26.95;;
23290;SDS011;11814;44.686;10.842;2023-03-23T00:38:17;40.60;;;28.05;;
23290;SDS011;11814;44.686;10.842;2023-03-23T00:40:47;36.58;;;26.67;;
23290;SDS011;11814;44.686;10.842;2023-03-23T00:43:14;46.55;;;30.13;;
23290;SDS011;11814;44.686;10.842;2023-03-23T00:45:41;40.15;;;28.70;;
23290;SDS011;11814;44.686;10.842;2023-03-23T00:48:21;39.22;;;27.33;;
23290;SDS011;11814;44.686;10.842;2023-03-23T00:50:50;38.40;;;27.77;;
23290;SDS011;11814;44.686;10.842;2023-03-23T00:53:16;40.58;;;27.58;;
23290;SDS011;11814;44.686;10.842;2023-03-23T00:55:44;34.67;;;25.48;;
23290;SDS011;11814;44.686;10.842;2023-03-23T00:58:11;45.33;;;28.13;;
23290;SDS011;11814;44.686;10.842;2023-03-23T01:00:38;35.72;;;26.23;;
23290;SDS011;11814;44.686;10.842;2023-03-23T01:03:05;34.85;;;23.58;;
23290;SDS011;11814;44.686;10.842;2023-03-23T01:05:45;32.53;;;23.58;;
23290;SDS011;11814;44.686;10.842;2023-03-23T01:08:16;31.55;;;21.33;;
23290;SDS011;11814;44.686;10.842;2023-03-23T01:10:44;33.45;;;24.63;;
23290;SDS011;11814;44.686;10.842;2023-03-23T01:13:10;45.20;;;27.25;;
23290;SDS011;11814;44.686;10.842;2023-03-23T01:15:42;36.75;;;26.33;;
23290;SDS011;11814;44.686;10.842;2023-03-23T01:18:08;33.95;;;24.02;;
23290;SDS011;11814;44.686;10.842;2023-03-23T01:20:35;36.55;;;24.90;;
23290;SDS011;11814;44.686;10.842;2023-03-23T01:23:02;33.55;;;24.65;;
23290;SDS011;11814;44.686;10.842;2023-03-23T01:25:29;35.70;;;24.17;;
23290;SDS011;11814;44.686;10.842;2023-03-23T01:27:57;34.40;;;23.90;;
23290;SDS011;11814;44.686;10.842;2023-03-23T01:30:23;34.92;;;23.20;;
23290;SDS011;11814;44.686;10.842;2023-03-23T01:32:50;28.75;;;22.40;;
23290;SDS011;11814;44.686;10.842;2023-03-23T01:35:16;30.95;;;21.40;;
23290;SDS011;11814;44.686;10.842;2023-03-23T01:37:42;32.25;;;23.17;;
23290;SDS011;11814;44.686;10.842;2023-03-23T01:40:08;31.50;;;23.95;;
23290;SDS011;11814;44.686;10.842;2023-03-23T01:42:36;30.88;;;21.45;;
23290;SDS011;11814;44.686;10.842;2023-03-23T01:50:50;30.48;;;23.50;;
23290;SDS011;11814;44.686;10.842;2023-03-23T01:53:17;31.88;;;23.23;;
23290;SDS011;11814;44.686;10.842;2023-03-23T01:55:49;35.50;;;21.88;;
23290;SDS011;11814;44.686;10.842;2023-03-23T01:58:24;27.50;;;21.73;;
23290;SDS011;11814;44.686;10.842;2023-03-23T02:00:53;37.95;;;24.88;;
23290;SDS011;11814;44.686;10.842;2023-03-23T02:03:20;31.45;;;23.08;;
23290;SDS011;11814;44.686;10.842;2023-03-23T02:05:48;33.33;;;23.92;;
23290;SDS011;11814;44.686;10.842;2023-03-23T02:08:15;33.97;;;24.05;;
23290;SDS011;11814;44.686;10.842;2023-03-23T02:10:43;34.08;;;22.45;;
23290;SDS011;11814;44.686;10.842;2023-03-23T02:13:09;29.98;;;21.90;;
23290;SDS011;11814;44.686;10.842;2023-03-23T02:18:05;30.83;;;22.48;;
23290;SDS011;11814;44.686;10.842;2023-03-23T02:20:47;31.00;;;21.65;;
23290;SDS011;11814;44.686;10.842;2023-03-23T02:26:29;39.33;;;25.15;;
23290;SDS011;11814;44.686;10.842;2023-03-23T02:31:41;35.83;;;25.77;;
23290;SDS011;11814;44.686;10.842;2023-03-23T02:34:32;43.55;;;28.20;;
23290;SDS011;11814;44.686;10.842;2023-03-23T02:39:52;39.38;;;24.98;;
23290;SDS011;11814;44.686;10.842;2023-03-23T02:42:23;37.28;;;25.45;;
23290;SDS011;11814;44.686;10.842;2023-03-23T02:44:52;37.33;;;24.63;;
23290;SDS011;11814;44.686;10.842;2023-03-23T02:47:21;39.80;;;27.27;;
23290;SDS011;11814;44.686;10.842;2023-03-23T02:49:51;44.03;;;27.80;;
23290;SDS011;11814;44.686;10.842;2023-03-23T02:52:20;42.38;;;29.17;;
23290;SDS011;11814;44.686;10.842;2023-03-23T02:54:55;44.20;;;29.73;;
23290;SDS011;11814;44.686;10.842;2023-03-23T02:57:24;43.83;;;29.55;;
23290;SDS011;11814;44.686;10.842;2023-03-23T02:59:52;32.42;;;25.13;;
23290;SDS011;11814;44.686;10.842;2023-03-23T03:02:19;36.25;;;25.77;;
23290;SDS011;11814;44.686;10.842;2023-03-23T03:05:12;40.08;;;27.55;;
23290;SDS011;11814;44.686;10.842;2023-03-23T03:11:20;35.55;;;26.38;;
23290;SDS011;11814;44.686;10.842;2023-03-23T03:13:32;42.78;;;27.90;;
23290;SDS011;11814;44.686;10.842;2023-03-23T03:21:36;39.67;;;28.38;;
23290;SDS011;11814;44.686;10.842;2023-03-23T03:24:05;43.97;;;28.90;;
23290;SDS011;11814;44.686;10.842;2023-03-23T03:26:36;38.10;;;28.40;;
23290;SDS011;11814;44.686;10.842;2023-03-23T03:29:06;47.83;;;31.98;;
23290;SDS011;11814;44.686;10.842;2023-03-23T03:31:34;37.25;;;26.25;;
23290;SDS011;11814;44.686;10.842;2023-03-23T03:34:03;35.72;;;24.92;;
23290;SDS011;11814;44.686;10.842;2023-03-23T03:36:31;38.03;;;27.73;;
23290;SDS011;11814;44.686;10.842;2023-03-23T03:39:05;42.58;;;29.45;;
23290;SDS011;11814;44.686;10.842;2023-03-23T03:41:34;40.45;;;29.73;;
23290;SDS011;11814;44.686;10.842;2023-03-23T03:44:01;43.03;;;29.00;;
23290;SDS011;11814;44.686;10.842;2023-03-23T03:46:32;37.70;;;28.70;;
23290;SDS011;11814;44.686;10.842;2023-03-23T03:48:58;38.95;;;28.95;;
23290;SDS011;11814;44.686;10.842;2023-03-23T03:51:26;41.58;;;29.92;;
23290;SDS011;11814;44.686;10.842;2023-03-23T03:53:53;43.45;;;30.30;;
23290;SDS011;11814;44.686;10.842;2023-03-23T03:56:19;47.17;;;30.70;;
23290;SDS011;11814;44.686;10.842;2023-03-23T03:58:47;44.08;;;30.75;;
23290;SDS011;11814;44.686;10.842;2023-03-23T04:01:13;40.65;;;30.13;;
23290;SDS011;11814;44.686;10.842;2023-03-23T04:03:41;39.80;;;29.27;;
23290;SDS011;11814;44.686;10.842;2023-03-23T04:06:07;37.38;;;28.33;;
23290;SDS011;11814;44.686;10.842;2023-03-23T04:08:34;37.35;;;27.17;;
23290;SDS011;11814;44.686;10.842;2023-03-23T04:11:03;38.65;;;27.45;;
23290;SDS011;11814;44.686;10.842;2023-03-23T04:13:29;34.28;;;26.30;;
23290;SDS011;11814;44.686;10.842;2023-03-23T04:15:55;36.47;;;26.85;;
23290;SDS011;11814;44.686;10.842;2023-03-23T04:18:21;35.05;;;26.27;;
23290;SDS011;11814;44.686;10.842;2023-03-23T04:20:49;39.05;;;27.60;;
23290;SDS011;11814;44.686;10.842;2023-03-23T04:23:16;35.42;;;27.05;;
23290;SDS011;11814;44.686;10.842;2023-03-23T04:25:48;35.55;;;27.98;;
23290;SDS011;11814;44.686;10.842;2023-03-23T04:28:16;39.88;;;27.50;;
23290;SDS011;11814;44.686;10.842;2023-03-23T04:30:43;33.63;;;25.80;;
23290;SDS011;11814;44.686;10.842;2023-03-23T04:33:13;36.00;;;26.65;;
23290;SDS011;11814;44.686;10.842;2023-03-23T04:35:41;36.72;;;26.75;;
23290;SDS011;11814;44.686;10.842;2023-03-23T04:38:07;34.80;;;26.55;;
23290;SDS011;11814;44.686;10.842;2023-03-23T04:40:37;37.60;;;25.60;;
23290;SDS011;11814;44.686;10.842;2023-03-23T04:43:05;40.22;;;28.23;;
23290;SDS011;11814;44.686;10.842;2023-03-23T04:45:31;35.10;;;26.73;;
23290;SDS011;11814;44.686;10.842;2023-03-23T04:47:59;34.90;;;25.42;;
23290;SDS011;11814;44.686;10.842;2023-03-23T04:50:29;40.40;;;25.83;;
23290;SDS011;11814;44.686;10.842;2023-03-23T04:52:57;37.45;;;25.52;;
23290;SDS011;11814;44.686;10.842;2023-03-23T04:55:29;33.53;;;24.27;;
23290;SDS011;11814;44.686;10.842;2023-03-23T04:58:02;34.08;;;23.55;;
23290;SDS011;11814;44.686;10.842;2023-03-23T05:00:30;33.30;;;23.73;;
23290;SDS011;11814;44.686;10.842;2023-03-23T05:02:57;35.47;;;24.73;;
23290;SDS011;11814;44.686;10.842;2023-03-23T05:05:24;30.33;;;22.83;;
23290;SDS011;11814;44.686;10.842;2023-03-23T05:07:52;32.90;;;25.02;;
23290;SDS011;11814;44.686;10.842;2023-03-23T05:10:18;33.78;;;23.70;;
23290;SDS011;11814;44.686;10.842;2023-03-23T05:12:44;32.22;;;23.58;;
23290;SDS011;11814;44.686;10.842;2023-03-23T05:15:11;34.40;;;24.70;;
23290;SDS011;11814;44.686;10.842;2023-03-23T05:17:38;33.58;;;24.13;;
23290;SDS011;11814;44.686;10.842;2023-03-23T05:20:05;31.27;;;22.88;;
23290;SDS011;11814;44.686;10.842;2023-03-23T05:22:36;33.75;;;21.83;;
23290;SDS011;11814;44.686;10.842;2023-03-23T05:25:03;33.28;;;23.05;;
23290;SDS011;11814;44.686;10.842;2023-03-23T05:27:31;32.83;;;21.45;;
23290;SDS011;11814;44.686;10.842;2023-03-23T05:29:57;29.75;;;21.42;;
23290;SDS011;11814;44.686;10.842;2023-03-23T05:32:24;32.10;;;21.60;;
23290;SDS011;11814;44.686;10.842;2023-03-23T05:34:57;34.03;;;22.48;;
23290;SDS011;11814;44.686;10.842;2023-03-23T05:37:24;31.15;;;20.73;;
23290;SDS011;11814;44.686;10.842;2023-03-23T05:39:51;30.58;;;21.02;;
23290;SDS011;11814;44.686;10.842;2023-03-23T05:42:19;32.33;;;21.02;;
23290;SDS011;11814;44.686;10.842;2023-03-23T05:44:45;29.25;;;20.60;;
23290;SDS011;11814;44.686;10.842;2023-03-23T05:47:12;33.22;;;20.40;;
23290;SDS011;11814;44.686;10.842;2023-03-23T05:49:38;24.13;;;18.55;;
23290;SDS011;11814;44.686;10.842;2023-03-23T05:52:03;27.20;;;19.60;;
23290;SDS011;11814;44.686;10.842;2023-03-23T05:54:29;25.67;;;19.33;;
23290;SDS011;11814;44.686;10.842;2023-03-23T05:56:55;28.30;;;18.35;;
23290;SDS011;11814;44.686;10.842;2023-03-23T05:59:21;24.52;;;17.67;;
23290;SDS011;11814;44.686;10.842;2023-03-23T06:01:47;24.88;;;18.02;;
23290;SDS011;11814;44.686;10.842;2023-03-23T06:04:12;26.17;;;18.02;;
23290;SDS011;11814;44.686;10.842;2023-03-23T06:06:38;24.45;;;17.88;;
23290;SDS011;11814;44.686;10.842;2023-03-23T06:09:06;27.52;;;18.25;;
23290;SDS011;11814;44.686;10.842;2023-03-23T06:11:32;25.60;;;18.05;;
23290;SDS011;11814;44.686;10.842;2023-03-23T06:13:59;22.88;;;16.60;;
23290;SDS011;11814;44.686;10.842;2023-03-23T06:16:24;24.10;;;17.50;;
23290;SDS011;11814;44.686;10.842;2023-03-23T06:18:50;25.42;;;16.70;;
23290;SDS011;11814;44.686;10.842;2023-03-23T06:21:16;26.80;;;16.98;;
23290;SDS011;11814;44.686;10.842;2023-03-23T06:23:46;27.38;;;16.92;;
23290;SDS011;11814;44.686;10.842;2023-03-23T06:26:13;23.33;;;16.33;;
23290;SDS011;11814;44.686;10.842;2023-03-23T06:28:41;31.42;;;18.38;;
23290;SDS011;11814;44.686;10.842;2023-03-23T06:31:07;25.58;;;17.05;;
23290;SDS011;11814;44.686;10.842;2023-03-23T06:33:37;20.67;;;15.52;;
23290;SDS011;11814;44.686;10.842;2023-03-23T06:36:03;19.38;;;15.45;;
23290;SDS011;11814;44.686;10.842;2023-03-23T06:38:30;21.50;;;14.43;;
23290;SDS011;11814;44.686;10.842;2023-03-23T06:40:56;20.20;;;13.18;;
23290;SDS011;11814;44.686;10.842;2023-03-23T06:43:22;26.60;;;13.52;;
23290;SDS011;11814;44.686;10.842;2023-03-23T06:45:49;21.58;;;13.50;;
23290;SDS011;11814;44.686;10.842;2023-03-23T06:48:16;22.52;;;14.48;;
23290;SDS011;11814;44.686;10.842;2023-03-23T06:50:43;22.60;;;13.80;;
23290;SDS011;11814;44.686;10.842;2023-03-23T06:53:10;27.75;;;14.38;;
23290;SDS011;11814;44.686;10.842;2023-03-23T06:55:36;21.95;;;12.88;;
23290;SDS011;11814;44.686;10.842;2023-03-23T06:58:03;20.02;;;12.35;;
23290;SDS011;11814;44.686;10.842;2023-03-23T07:00:30;22.23;;;12.55;;
23290;SDS011;11814;44.686;10.842;2023-03-23T07:02:57;21.20;;;12.68;;
23290;SDS011;11814;44.686;10.842;2023-03-23T07:05:23;19.95;;;11.18;;
23290;SDS011;11814;44.686;10.842;2023-03-23T07:07:49;20.45;;;10.75;;
23290;SDS011;11814;44.686;10.842;2023-03-23T07:10:15;21.08;;;10.00;;
23290;SDS011;11814;44.686;10.842;2023-03-23T07:12:41;15.20;;;10.07;;
23290;SDS011;11814;44.686;10.842;2023-03-23T07:15:07;13.43;;;8.95;;
23290;SDS011;11814;44.686;10.842;2023-03-23T07:17:35;13.88;;;9.23;;
23290;SDS011;11814;44.686;10.842;2023-03-23T07:20:05;17.85;;;9.23;;
23290;SDS011;11814;44.686;10.842;2023-03-23T07:22:32;11.60;;;8.40;;
23290;SDS011;11814;44.686;10.842;2023-03-23T07:24:58;13.63;;;7.85;;
23290;SDS011;11814;44.686;10.842;2023-03-23T07:27:24;12.73;;;7.57;;
23290;SDS011;11814;44.686;10.842;2023-03-23T07:29:50;10.48;;;7.25;;
23290;SDS011;11814;44.686;10.842;2023-03-23T07:32:16;10.90;;;6.50;;
23290;SDS011;11814;44.686;10.842;2023-03-23T07:34:42;19.55;;;7.55;;
23290;SDS011;11814;44.686;10.842;2023-03-23T07:37:08;10.77;;;6.65;;
23290;SDS011;11814;44.686;10.842;2023-03-23T07:39:34;12.10;;;6.15;;
23290;SDS011;11814;44.686;10.842;2023-03-23T07:42:01;8.60;;;5.75;;
23290;SDS011;11814;44.686;10.842;2023-03-23T07:44:26;10.82;;;6.95;;
23290;SDS011;11814;44.686;10.842;2023-03-23T07:46:52;8.48;;;6.20;;
23290;SDS011;11814;44.686;10.842;2023-03-23T07:49:18;12.82;;;6.78;;
23290;SDS011;11814;44.686;10.842;2023-03-23T07:51:44;11.23;;;6.95;;
23290;SDS011;11814;44.686;10.842;2023-03-23T07:54:11;9.88;;;7.07;;
23290;SDS011;11814;44.686;10.842;2023-03-23T07:56:37;18.05;;;7.30;;
23290;SDS011;11814;44.686;10.842;2023-03-23T07:59:05;16.23;;;7.93;;
23290;SDS011;11814;44.686;10.842;2023-03-23T08:01:31;12.95;;;7.45;;
23290;SDS011;11814;44.686;10.842;2023-03-23T08:03:57;17.90;;;8.05;;
23290;SDS011;11814;44.686;10.842;2023-03-23T08:06:24;13.43;;;8.10;;
23290;SDS011;11814;44.686;10.842;2023-03-23T08:08:50;13.90;;;7.85;;
23290;SDS011;11814;44.686;10.842;2023-03-23T08:11:16;10.93;;;7.90;;
23290;SDS011;11814;44.686;10.842;2023-03-23T08:13:43;13.43;;;8.90;;
23290;SDS011;11814;44.686;10.842;2023-03-23T08:16:10;13.65;;;8.68;;
23290;SDS011;11814;44.686;10.842;2023-03-23T08:18:36;13.90;;;8.48;;
23290;SDS011;11814;44.686;10.842;2023-03-23T08:21:04;13.20;;;9.07;;
23290;SDS011;11814;44.686;10.842;2023-03-23T08:23:32;17.77;;;10.10;;
23290;SDS011;11814;44.686;10.842;2023-03-23T08:25:58;17.23;;;9.77;;
23290;SDS011;11814;44.686;10.842;2023-03-23T08:28:25;22.55;;;10.15;;
23290;SDS011;11814;44.686;10.842;2023-03-23T08:30:51;17.42;;;10.55;;
23290;SDS011;11814;44.686;10.842;2023-03-23T08:33:17;26.58;;;10.70;;
23290;SDS011;11814;44.686;10.842;2023-03-23T08:35:43;16.58;;;9.75;;
23290;SDS011;11814;44.686;10.842;2023-03-23T08:38:10;19.75;;;11.43;;
23290;SDS011;11814;44.686;10.842;2023-03-23T08:40:36;18.60;;;11.02;;
23290;SDS011;11814;44.686;10.842;2023-03-23T08:43:03;19.58;;;10.82;;
23290;SDS011;11814;44.686;10.842;2023-03-23T08:45:29;21.50;;;11.82;;
23290;SDS011;11814;44.686;10.842;2023-03-23T08:47:55;21.75;;;12.82;;
23290;SDS011;11814;44.686;10.842;2023-03-23T08:50:22;20.90;;;12.35;;
23290;SDS011;11814;44.686;10.842;2023-03-23T08:52:50;23.40;;;12.65;;
23290;SDS011;11814;44.686;10.842;2023-03-23T08:55:16;22.60;;;11.35;;
23290;SDS011;11814;44.686;10.842;2023-03-23T08:57:45;23.30;;;11.95;;
23290;SDS011;11814;44.686;10.842;2023-03-23T09:00:12;22.35;;;12.63;;
23290;SDS011;11814;44.686;10.842;2023-03-23T09:02:44;19.23;;;11.40;;
23290;SDS011;11814;44.686;10.842;2023-03-23T09:05:12;23.65;;;12.63;;
23290;SDS011;11814;44.686;10.842;2023-03-23T09:07:39;24.00;;;13.20;;
23290;SDS011;11814;44.686;10.842;2023-03-23T09:10:06;52.63;;;16.23;;
23290;SDS011;11814;44.686;10.842;2023-03-23T09:12:33;22.00;;;12.80;;
23290;SDS011;11814;44.686;10.842;2023-03-23T09:15:00;21.25;;;13.07;;
23290;SDS011;11814;44.686;10.842;2023-03-23T09:17:30;23.40;;;12.98;;
23290;SDS011;11814;44.686;10.842;2023-03-23T09:19:56;46.83;;;16.38;;
23290;SDS011;11814;44.686;10.842;2023-03-23T09:22:22;21.33;;;12.13;;
23290;SDS011;11814;44.686;10.842;2023-03-23T09:24:49;23.88;;;11.75;;
23290;SDS011;11814;44.686;10.842;2023-03-23T09:27:16;19.00;;;12.13;;
23290;SDS011;11814;44.686;10.842;2023-03-23T09:29:42;22.73;;;13.05;;
23290;SDS011;11814;44.686;10.842;2023-03-23T09:32:10;27.35;;;14.02;;
23290;SDS011;11814;44.686;10.842;2023-03-23T09:34:38;25.38;;;14.27;;
23290;SDS011;11814;44.686;10.842;2023-03-23T09:37:04;26.17;;;14.38;;
23290;SDS011;11814;44.686;10.842;2023-03-23T09:39:31;27.25;;;14.70;;
23290;SDS011;11814;44.686;10.842;2023-03-23T09:42:04;24.60;;;14.43;;
23290;SDS011;11814;44.686;10.842;2023-03-23T09:47:20;29.08;;;14.73;;
23290;SDS011;11814;44.686;10.842;2023-03-23T09:50:17;29.85;;;15.38;;
23290;SDS011;11814;44.686;10.842;2023-03-23T09:52:51;23.10;;;14.45;;
23290;SDS011;11814;44.686;10.842;2023-03-23T09:55:27;24.90;;;14.32;;
23290;SDS011;11814;44.686;10.842;2023-03-23T10:00:57;23.70;;;15.07;;
23290;SDS011;11814;44.686;10.842;2023-03-23T10:03:16;25.10;;;14.55;;
23290;SDS011;11814;44.686;10.842;2023-03-23T10:05:48;22.00;;;14.15;;
23290;SDS011;11814;44.686;10.842;2023-03-23T10:08:21;24.45;;;13.95;;
23290;SDS011;11814;44.686;10.842;2023-03-23T10:16:40;20.23;;;12.15;;
23290;SDS011;11814;44.686;10.842;2023-03-23T10:22:25;20.75;;;12.70;;
23290;SDS011;11814;44.686;10.842;2023-03-23T10:25:18;19.65;;;12.50;;
23290;SDS011;11814;44.686;10.842;2023-03-23T10:30:19;16.00;;;10.25;;
23290;SDS011;11814;44.686;10.842;2023-03-23T10:32:56;17.88;;;10.38;;
23290;SDS011;11814;44.686;10.842;2023-03-23T10:35:35;20.90;;;12.48;;
23290;SDS011;11814;44.686;10.842;2023-03-23T10:38:06;19.33;;;12.70;;
23290;SDS011;11814;44.686;10.842;2023-03-23T10:40:44;21.95;;;13.23;;
23290;SDS011;11814;44.686;10.842;2023-03-23T10:43:34;22.20;;;13.15;;
23290;SDS011;11814;44.686;10.842;2023-03-23T10:46:02;21.80;;;13.23;;
23290;SDS011;11814;44.686;10.842;2023-03-23T10:48:37;22.60;;;13.77;;
23290;SDS011;11814;44.686;10.842;2023-03-23T10:51:04;26.23;;;15.15;;
23290;SDS011;11814;44.686;10.842;2023-03-23T10:53:45;22.40;;;14.15;;
23290;SDS011;11814;44.686;10.842;2023-03-23T10:56:23;29.98;;;15.30;;
23290;SDS011;11814;44.686;10.842;2023-03-23T10:58:50;26.27;;;16.38;;
23290;SDS011;11814;44.686;10.842;2023-03-23T11:01:18;27.45;;;17.95;;
23290;SDS011;11814;44.686;10.842;2023-03-23T11:03:45;29.77;;;17.50;;
23290;SDS011;11814;44.686;10.842;2023-03-23T11:06:24;26.90;;;16.92;;
23290;SDS011;11814;44.686;10.842;2023-03-23T11:08:55;32.55;;;21.20;;
23290;SDS011;11814;44.686;10.842;2023-03-23T11:11:28;41.58;;;23.65;;
23290;SDS011;11814;44.686;10.842;2023-03-23T11:14:15;31.80;;;22.15;;
23290;SDS011;11814;44.686;10.842;2023-03-23T11:16:59;36.28;;;23.20;;
23290;SDS011;11814;44.686;10.842;2023-03-23T11:24:30;54.03;;;23.50;;
23290;SDS011;11814;44.686;10.842;2023-03-23T11:26:58;33.83;;;22.70;;
23290;SDS011;11814;44.686;10.842;2023-03-23T11:29:25;34.80;;;23.50;;
23290;SDS011;11814;44.686;10.842;2023-03-23T11:32:02;34.33;;;23.80;;
23290;SDS011;11814;44.686;10.842;2023-03-23T11:34:45;33.55;;;22.33;;
23290;SDS011;11814;44.686;10.842;2023-03-23T11:37:25;32.80;;;21.55;;
23290;SDS011;11814;44.686;10.842;2023-03-23T11:42:45;31.20;;;22.90;;
23290;SDS011;11814;44.686;10.842;2023-03-23T11:45:20;32.90;;;23.27;;
23290;SDS011;11814;44.686;10.842;2023-03-23T11:50:23;35.08;;;23.45;;
23290;SDS011;11814;44.686;10.842;2023-03-23T11:56:09;31.15;;;22.27;;
23290;SDS011;11814;44.686;10.842;2023-03-23T11:58:13;28.27;;;18.25;;
23290;SDS011;11814;44.686;10.842;2023-03-23T12:00:45;22.65;;;16.15;;
23290;SDS011;11814;44.686;10.842;2023-03-23T12:30:52;21.10;;;15.25;;
23290;SDS011;11814;44.686;10.842;2023-03-23T12:41:31;20.65;;;13.13;;
23290;SDS011;11814;44.686;10.842;2023-03-23T12:44:11;23.27;;;13.85;;
23290;SDS011;11814;44.686;10.842;2023-03-23T12:46:55;18.25;;;12.38;;
23290;SDS011;11814;44.686;10.842;2023-03-23T12:58:05;19.85;;;11.88;;
23290;SDS011;11814;44.686;10.842;2023-03-23T13:03:31;17.70;;;12.18;;
23290;SDS011;11814;44.686;10.842;2023-03-23T13:11:16;17.42;;;11.90;;
23290;SDS011;11814;44.686;10.842;2023-03-23T13:13:50;20.00;;;12.98;;
23290;SDS011;11814;44.686;10.842;2023-03-23T13:16:27;19.75;;;12.82;;
23290;SDS011;11814;44.686;10.842;2023-03-23T13:24:18;19.75;;;14.25;;
23290;SDS011;11814;44.686;10.842;2023-03-23T13:26:46;23.83;;;14.10;;
23290;SDS011;11814;44.686;10.842;2023-03-23T13:29:17;22.80;;;14.45;;
23290;SDS011;11814;44.686;10.842;2023-03-23T13:31:45;18.88;;;13.85;;
23290;SDS011;11814;44.686;10.842;2023-03-23T13:34:19;20.17;;;13.60;;
23290;SDS011;11814;44.686;10.842;2023-03-23T13:39:28;22.70;;;15.20;;
23290;SDS011;11814;44.686;10.842;2023-03-23T13:42:03;23.58;;;16.38;;
23290;SDS011;11814;44.686;10.842;2023-03-23T13:52:58;25.27;;;17.27;;
23290;SDS011;11814;44.686;10.842;2023-03-23T14:11:00;20.73;;;15.27;;
23290;SDS011;11814;44.686;10.842;2023-03-23T14:18:51;20.88;;;14.25;;
23290;SDS011;11814;44.686;10.842;2023-03-23T14:21:26;21.88;;;14.02;;
23290;SDS011;11814;44.686;10.842;2023-03-23T14:24:27;20.00;;;13.55;;
23290;SDS011;11814;44.686;10.842;2023-03-23T14:27:02;19.77;;;13.20;;
23290;SDS011;11814;44.686;10.842;2023-03-23T14:29:35;22.20;;;13.85;;
23290;SDS011;11814;44.686;10.842;2023-03-23T14:32:02;24.98;;;15.68;;
23290;SDS011;11814;44.686;10.842;2023-03-23T14:34:31;20.60;;;15.25;;
23290;SDS011;11814;44.686;10.842;2023-03-23T14:36:58;22.55;;;15.38;;
23290;SDS011;11814;44.686;10.842;2023-03-23T14:39:26;23.25;;;14.65;;
23290;SDS011;11814;44.686;10.842;2023-03-23T14:42:01;23.90;;;15.63;;
23290;SDS011;11814;44.686;10.842;2023-03-23T14:44:30;24.30;;;14.15;;
23290;SDS011;11814;44.686;10.842;2023-03-23T14:47:01;21.23;;;13.88;;
23290;SDS011;11814;44.686;10.842;2023-03-23T14:49:33;23.17;;;14.77;;
23290;SDS011;11814;44.686;10.842;2023-03-23T14:52:12;21.27;;;14.50;;
23290;SDS011;11814;44.686;10.842;2023-03-23T14:54:41;24.98;;;15.70;;
23290;SDS011;11814;44.686;10.842;2023-03-23T14:57:13;24.13;;;15.98;;
23290;SDS011;11814;44.686;10.842;2023-03-23T14:59:41;23.70;;;15.75;;
23290;SDS011;11814;44.686;10.842;2023-03-23T15:02:12;21.08;;;14.68;;
23290;SDS011;11814;44.686;10.842;2023-03-23T15:04:48;23.52;;;15.18;;
23290;SDS011;11814;44.686;10.842;2023-03-23T15:07:18;26.33;;;16.92;;
23290;SDS011;11814;44.686;10.842;2023-03-23T15:09:46;27.08;;;18.00;;
23290;SDS011;11814;44.686;10.842;2023-03-23T15:12:20;28.10;;;17.92;;
23290;SDS011;11814;44.686;10.842;2023-03-23T15:14:55;29.67;;;19.30;;
23290;SDS011;11814;44.686;10.842;2023-03-23T15:17:24;29.88;;;18.38;;
23290;SDS011;11814;44.686;10.842;2023-03-23T15:19:52;26.55;;;18.55;;
23290;SDS011;11814;44.686;10.842;2023-03-23T15:22:23;28.70;;;18.95;;
23290;SDS011;11814;44.686;10.842;2023-03-23T15:25:04;30.23;;;17.35;;
23290;SDS011;11814;44.686;10.842;2023-03-23T15:27:40;32.47;;;19.13;;
23290;SDS011;11814;44.686;10.842;2023-03-23T15:30:12;29.45;;;19.23;;
23290;SDS011;11814;44.686;10.842;2023-03-23T15:32:54;31.05;;;18.70;;
23290;SDS011;11814;44.686;10.842;2023-03-23T15:35:25;32.83;;;19.35;;
23290;SDS011;11814;44.686;10.842;2023-03-23T15:40:17;28.60;;;19.13;;
23290;SDS011;11814;44.686;10.842;2023-03-23T15:42:45;36.50;;;20.38;;
23290;SDS011;11814;44.686;10.842;2023-03-23T15:50:15;36.92;;;23.33;;
23290;SDS011;11814;44.686;10.842;2023-03-23T15:52:43;39.35;;;23.38;;
23290;SDS011;11814;44.686;10.842;2023-03-23T15:57:46;29.67;;;19.50;;
23290;SDS011;11814;44.686;10.842;2023-03-23T16:00:14;31.98;;;18.83;;
23290;SDS011;11814;44.686;10.842;2023-03-23T16:02:42;35.50;;;19.70;;
23290;SDS011;11814;44.686;10.842;2023-03-23T16:05:16;33.42;;;18.52;;
23290;SDS011;11814;44.686;10.842;2023-03-23T16:07:42;28.80;;;17.05;;
23290;SDS011;11814;44.686;10.842;2023-03-23T16:10:13;27.90;;;17.88;;
23290;SDS011;11814;44.686;10.842;2023-03-23T16:12:43;30.80;;;17.33;;
23290;SDS011;11814;44.686;10.842;2023-03-23T16:15:10;33.05;;;17.75;;
23290;SDS011;11814;44.686;10.842;2023-03-23T16:17:36;26.58;;;17.33;;
23290;SDS011;11814;44.686;10.842;2023-03-23T16:20:04;30.77;;;16.35;;
23290;SDS011;11814;44.686;10.842;2023-03-23T16:22:38;31.35;;;16.58;;
23290;SDS011;11814;44.686;10.842;2023-03-23T16:25:04;30.25;;;17.15;;
23290;SDS011;11814;44.686;10.842;2023-03-23T16:27:31;29.85;;;16.83;;
23290;SDS011;11814;44.686;10.842;2023-03-23T16:29:57;30.67;;;17.67;;
23290;SDS011;11814;44.686;10.842;2023-03-23T16:32:24;32.38;;;17.98;;
23290;SDS011;11814;44.686;10.842;2023-03-23T16:34:51;29.15;;;17.65;;
23290;SDS011;11814;44.686;10.842;2023-03-23T16:37:17;30.88;;;18.35;;
23290;SDS011;11814;44.686;10.842;2023-03-23T16:39:42;33.30;;;18.17;;
23290;SDS011;11814;44.686;10.842;2023-03-23T16:42:08;31.48;;;17.40;;
23290;SDS011;11814;44.686;10.842;2023-03-23T16:44:34;31.38;;;17.50;;
23290;SDS011;11814;44.686;10.842;2023-03-23T16:47:01;34.65;;;18.52;;
23290;SDS011;11814;44.686;10.842;2023-03-23T16:49:27;35.15;;;17.10;;
23290;SDS011;11814;44.686;10.842;2023-03-23T16:51:53;30.35;;;18.10;;
23290;SDS011;11814;44.686;10.842;2023-03-23T16:54:18;30.63;;;18.02;;
23290;SDS011;11814;44.686;10.842;2023-03-23T16:56:44;34.60;;;18.45;;
23290;SDS011;11814;44.686;10.842;2023-03-23T16:59:11;35.97;;;18.98;;